createdAt,value
2023-03-11T00:00:19.946Z,0.46
2023-03-11T00:02:48.714Z,0.48
2023-03-11T00:05:18.265Z,0.45
2023-03-11T00:07:46.100Z,0.50
2023-03-11T00:10:17.792Z,0.54
2023-03-11T00:12:45.569Z,0.53
2023-03-11T00:15:14.702Z,0.47
2023-03-11T00:17:42.889Z,0.46
2023-03-11T00:20:20.293Z,0.46
2023-03-11T00:22:48.498Z,0.42
2023-03-11T00:25:19.093Z,0.38
2023-03-11T00:27:47.051Z,0.43
2023-03-11T00:30:16.257Z,0.35
2023-03-11T00:32:44.668Z,0.45
2023-03-11T00:35:14.408Z,0.46
2023-03-11T00:37:42.319Z,0.43
2023-03-11T00:40:14.142Z,0.44
2023-03-11T00:42:43.314Z,0.40
2023-03-11T00:45:11.753Z,0.37
2023-03-11T00:47:39.546Z,0.35
2023-03-11T00:50:09.662Z,0.39
2023-03-11T00:52:38.808Z,0.43
2023-03-11T00:55:07.104Z,0.47
2023-03-11T00:57:34.886Z,0.45
2023-03-11T01:00:04.550Z,0.50
2023-03-11T01:02:32.342Z,0.47
2023-03-11T01:05:00.087Z,0.50
2023-03-11T01:07:27.819Z,0.46
2023-03-11T01:09:55.604Z,0.47
2023-03-11T01:12:23.335Z,0.47
2023-03-11T01:14:51.164Z,0.41
2023-03-11T01:17:22.119Z,0.46
2023-03-11T01:19:49.928Z,0.46
2023-03-11T01:22:18.134Z,0.44
2023-03-11T01:24:46.042Z,0.42
2023-03-11T01:27:13.901Z,0.42
2023-03-11T01:29:41.720Z,0.38
2023-03-11T01:32:09.521Z,0.36
2023-03-11T01:34:38.653Z,0.34
2023-03-11T01:37:06.449Z,0.30
2023-03-11T01:39:34.226Z,0.29
2023-03-11T01:42:01.997Z,0.29
2023-03-11T01:44:29.728Z,0.25
2023-03-11T01:47:35.222Z,0.22
2023-03-11T01:50:06.628Z,0.23
2023-03-11T01:52:34.707Z,0.22
2023-03-11T01:55:02.621Z,0.17
2023-03-11T01:57:31.064Z,0.17
2023-03-11T02:00:01.617Z,0.17
2023-03-11T02:02:35.482Z,0.12
2023-03-11T02:05:05.697Z,0.11
2023-03-11T02:07:34.038Z,0.08
2023-03-11T02:10:02.171Z,0.09
2023-03-11T02:12:35.155Z,0.07
2023-03-11T02:15:03.863Z,0.09
2023-03-11T02:17:31.800Z,0.07
2023-03-11T02:20:13.410Z,0.06
2023-03-11T02:22:42.766Z,0.08
2023-03-11T02:25:19.634Z,0.08
2023-03-11T02:27:52.117Z,0.05
2023-03-11T02:30:21.700Z,0.04
2023-03-11T02:32:50.571Z,0.01
2023-03-11T02:35:19.009Z,0.00
2023-03-11T02:37:48.070Z,-0.01
2023-03-11T02:40:36.331Z,-0.05
2023-03-11T02:43:09.246Z,-0.02
2023-03-11T02:45:39.969Z,-0.02
2023-03-11T02:48:11.190Z,-0.02
2023-03-11T02:50:39.526Z,-0.04
2023-03-11T02:53:07.744Z,-0.05
2023-03-11T02:55:35.606Z,-0.08
2023-03-11T02:58:04.925Z,-0.09
2023-03-11T03:00:33.912Z,-0.10
2023-03-11T03:03:01.837Z,-0.13
2023-03-11T03:05:29.747Z,-0.16
2023-03-11T03:07:57.664Z,-0.19
2023-03-11T03:10:25.751Z,-0.19
2023-03-11T03:12:53.570Z,-0.24
2023-03-11T03:15:22.716Z,-0.27
2023-03-11T03:17:51.595Z,-0.33
2023-03-11T03:20:20.772Z,-0.33
2023-03-11T03:22:48.695Z,-0.36
2023-03-11T03:25:16.649Z,-0.39
2023-03-11T03:27:44.513Z,-0.40
2023-03-11T03:30:13.474Z,-0.40
2023-03-11T03:32:42.796Z,-0.43
2023-03-11T03:35:11.222Z,-0.44
2023-03-11T03:37:39.205Z,-0.45
2023-03-11T03:40:10.011Z,-0.47
2023-03-11T03:42:39.387Z,-0.48
2023-03-11T03:45:09.496Z,-0.50
2023-03-11T03:47:37.607Z,-0.53
2023-03-11T03:50:09.145Z,-0.55
2023-03-11T03:52:37.338Z,-0.58
2023-03-11T03:55:06.719Z,-0.58
2023-03-11T03:57:34.796Z,-0.60
2023-03-11T04:00:03.802Z,-0.62
2023-03-11T04:02:32.689Z,-0.61
2023-03-11T04:05:00.410Z,-0.65
2023-03-11T04:07:29.531Z,-0.62
2023-03-11T04:09:57.372Z,-0.65
2023-03-11T04:12:25.313Z,-0.66
2023-03-11T04:14:53.571Z,-0.67
2023-03-11T04:17:21.353Z,-0.69
2023-03-11T04:19:49.241Z,-0.71
2023-03-11T04:22:16.987Z,-0.73
2023-03-11T04:24:46.347Z,-0.73
2023-03-11T04:27:16.425Z,-0.75
2023-03-11T04:29:44.318Z,-0.81
2023-03-11T04:32:12.125Z,-0.78
2023-03-11T04:34:40.733Z,-0.80
2023-03-11T04:37:08.570Z,-0.78
2023-03-11T04:39:36.278Z,-0.80
2023-03-11T04:42:05.725Z,-0.88
2023-03-11T04:44:36.012Z,-0.88
2023-03-11T04:47:03.693Z,-0.88
2023-03-11T04:49:31.438Z,-0.90
2023-03-11T04:51:59.197Z,-0.92
2023-03-11T04:54:27.012Z,-0.94
2023-03-11T04:56:55.118Z,-1.02
2023-03-11T04:59:24.276Z,-0.95
2023-03-11T05:01:52.098Z,-0.95
2023-03-11T05:04:19.866Z,-0.99
2023-03-11T05:06:50.859Z,-1.02
2023-03-11T05:09:18.726Z,-1.03
2023-03-11T05:11:46.485Z,-1.08
2023-03-11T05:14:14.227Z,-1.13
2023-03-11T05:16:43.383Z,-1.15
2023-03-11T05:19:25.009Z,-1.13
2023-03-11T05:21:52.795Z,-1.18
2023-03-11T05:24:21.004Z,-1.19
2023-03-11T05:26:48.817Z,-1.22
2023-03-11T05:29:16.583Z,-1.27
2023-03-11T05:31:45.691Z,-1.27
2023-03-11T05:34:13.635Z,-1.34
2023-03-11T05:36:41.440Z,-1.34
2023-03-11T05:39:09.240Z,-1.37
2023-03-11T05:41:37.146Z,-1.34
2023-03-11T05:44:05.492Z,-1.36
2023-03-11T05:46:33.347Z,-1.37
2023-03-11T05:49:02.481Z,-1.42
2023-03-11T05:51:30.627Z,-1.43
2023-03-11T05:53:58.758Z,-1.44
2023-03-11T05:56:26.523Z,-1.47
2023-03-11T05:58:54.249Z,-1.47
2023-03-11T06:01:22.006Z,-1.49
2023-03-11T06:03:49.841Z,-1.52
2023-03-11T06:06:19.057Z,-1.49
2023-03-11T06:08:49.878Z,-1.50
2023-03-11T06:11:18.411Z,-1.48
2023-03-11T06:13:46.163Z,-1.50
2023-03-11T06:16:14.282Z,-1.57
2023-03-11T06:18:42.280Z,-1.52
2023-03-11T06:21:17.084Z,-1.52
2023-03-11T06:23:46.586Z,-1.53
2023-03-11T06:26:16.744Z,-1.56
2023-03-11T06:28:45.435Z,-1.53
2023-03-11T06:31:16.987Z,-1.50
2023-03-11T06:33:44.998Z,-1.51
2023-03-11T06:36:15.136Z,-1.50
2023-03-11T06:38:43.228Z,-1.51
2023-03-11T06:41:12.385Z,-1.49
2023-03-11T06:43:40.319Z,-1.47
2023-03-11T06:46:12.817Z,-1.48
2023-03-11T06:48:40.835Z,-1.48
2023-03-11T06:51:08.849Z,-1.44
2023-03-11T06:53:36.727Z,-1.44
2023-03-11T06:56:07.442Z,-1.45
2023-03-11T06:58:38.186Z,-1.43
2023-03-11T07:01:08.410Z,-1.41
2023-03-11T07:03:39.065Z,-1.39
2023-03-11T07:06:07.481Z,-1.46
2023-03-11T07:08:35.223Z,-1.38
2023-03-11T07:11:04.963Z,-1.34
2023-03-11T07:13:33.255Z,-1.32
2023-03-11T07:16:03.713Z,-1.28
2023-03-11T07:18:31.539Z,-1.25
2023-03-11T07:20:59.363Z,-1.21
2023-03-11T07:23:27.215Z,-1.16
2023-03-11T07:25:55.577Z,-1.13
2023-03-11T07:28:23.507Z,-1.07
2023-03-11T07:30:51.382Z,-1.04
2023-03-11T07:33:21.048Z,-0.97
2023-03-11T07:35:49.425Z,-0.89
2023-03-11T07:38:17.987Z,-0.83
2023-03-11T07:40:45.878Z,-0.74
2023-03-11T07:43:13.661Z,-0.66
2023-03-11T07:45:41.497Z,-0.55
2023-03-11T07:48:09.215Z,-0.46
2023-03-11T07:50:38.370Z,-0.33
2023-03-11T07:53:06.092Z,-0.21
2023-03-11T07:55:34.494Z,-0.08
2023-03-11T07:58:02.434Z,0.06
2023-03-11T08:00:30.286Z,0.20
2023-03-11T08:02:58.022Z,0.30
2023-03-11T08:05:25.915Z,0.40
2023-03-11T08:07:55.026Z,0.52
2023-03-11T08:10:22.758Z,0.62
2023-03-11T08:12:50.500Z,0.73
2023-03-11T08:15:18.230Z,0.84
2023-03-11T08:17:45.985Z,0.96
2023-03-11T08:20:14.307Z,1.14
2023-03-11T08:22:55.607Z,1.36
2023-03-11T08:25:26.940Z,1.53
2023-03-11T08:27:54.657Z,1.72
2023-03-11T08:30:22.925Z,1.87
2023-03-11T08:32:51.075Z,2.03
2023-03-11T08:35:19.011Z,2.11
2023-03-11T08:37:46.815Z,2.28
2023-03-11T08:40:14.934Z,2.46
2023-03-11T08:42:44.031Z,2.64
2023-03-11T08:45:12.783Z,2.86
2023-03-11T08:47:41.282Z,3.03
2023-03-11T08:50:13.403Z,3.12
2023-03-11T08:52:41.143Z,3.27
2023-03-11T08:55:11.528Z,3.40
2023-03-11T08:57:39.281Z,3.51
2023-03-11T09:00:13.000Z,3.58
2023-03-11T09:02:41.650Z,3.66
2023-03-11T09:05:10.277Z,3.82
2023-03-11T09:07:38.044Z,3.89
2023-03-11T09:10:06.828Z,3.95
2023-03-11T09:12:34.638Z,4.03
2023-03-11T09:15:02.387Z,4.20
2023-03-11T09:17:31.544Z,4.29
2023-03-11T09:19:59.553Z,4.33
2023-03-11T09:22:27.338Z,4.42
2023-03-11T09:24:55.077Z,4.42
2023-03-11T09:27:22.843Z,4.41
2023-03-11T09:29:50.819Z,4.41
2023-03-11T09:32:18.633Z,4.41
2023-03-11T09:34:47.799Z,4.41
2023-03-11T09:37:15.800Z,4.45
2023-03-11T09:39:44.695Z,4.45
2023-03-11T09:42:21.362Z,4.45
2023-03-11T09:44:59.931Z,4.46
2023-03-11T09:47:45.148Z,4.53
2023-03-11T09:50:29.538Z,4.64
2023-03-11T09:53:10.180Z,4.76
2023-03-11T09:55:43.397Z,4.86
2023-03-11T09:58:18.898Z,4.94
2023-03-11T10:00:47.338Z,4.98
2023-03-11T10:03:30.466Z,4.96
2023-03-11T10:06:07.372Z,4.94
2023-03-11T10:08:43.784Z,5.09
2023-03-11T10:11:28.531Z,5.24
2023-03-11T10:14:07.699Z,5.29
2023-03-11T10:16:42.847Z,5.18
2023-03-11T10:19:22.831Z,4.93
2023-03-11T10:22:02.238Z,5.05
2023-03-11T10:24:52.874Z,5.12
2023-03-11T10:27:24.433Z,5.23
2023-03-11T10:30:01.728Z,5.26
2023-03-11T10:32:39.332Z,5.26
2023-03-11T10:35:17.730Z,5.26
2023-03-11T10:37:52.658Z,5.25
2023-03-11T10:40:29.779Z,5.33
2023-03-11T10:43:00.926Z,5.37
2023-03-11T10:45:41.388Z,5.35
2023-03-11T10:48:11.265Z,5.30
2023-03-11T10:50:47.469Z,5.27
2023-03-11T10:53:19.796Z,5.24
2023-03-11T10:55:49.722Z,5.21
2023-03-11T10:58:20.529Z,5.21
2023-03-11T11:01:01.042Z,5.24
2023-03-11T11:03:29.480Z,5.27
2023-03-11T11:06:03.203Z,5.42
2023-03-11T11:08:32.932Z,5.69
2023-03-11T11:11:01.880Z,6.14
2023-03-11T11:13:32.405Z,6.46
2023-03-11T11:16:02.509Z,6.60
2023-03-11T11:18:34.434Z,6.72
2023-03-11T11:21:05.584Z,6.82
2023-03-11T11:23:39.902Z,6.89
2023-03-11T11:26:15.657Z,7.01
2023-03-11T11:28:43.444Z,7.12
2023-03-11T11:31:23.277Z,7.42
2023-03-11T11:33:53.250Z,7.66
2023-03-11T11:36:25.478Z,7.92
2023-03-11T11:38:55.652Z,8.21
2023-03-11T11:41:25.886Z,8.47
2023-03-11T11:43:56.005Z,8.70
2023-03-11T11:46:30.306Z,8.81
2023-03-11T11:49:06.922Z,8.93
2023-03-11T11:51:40.283Z,9.03
2023-03-11T11:54:18.135Z,9.23
2023-03-11T11:56:46.590Z,9.44
2023-03-11T11:59:18.839Z,9.60
2023-03-11T12:01:59.332Z,9.74
2023-03-11T12:04:39.423Z,9.87
2023-03-11T12:07:23.032Z,9.99
2023-03-11T12:10:12.997Z,10.09
2023-03-11T12:12:55.402Z,10.26
2023-03-11T12:15:28.213Z,10.33
2023-03-11T12:18:02.357Z,10.30
2023-03-11T12:20:35.838Z,10.35
2023-03-11T12:23:18.398Z,10.41
2023-03-11T12:26:03.362Z,10.51
2023-03-11T12:28:40.556Z,10.62
2023-03-11T12:31:11.070Z,10.74
2023-03-11T12:33:41.243Z,10.74
2023-03-11T12:36:24.558Z,10.35
2023-03-11T12:38:54.655Z,9.20
2023-03-11T12:42:18.904Z,9.15
2023-03-11T12:44:48.472Z,9.13
2023-03-11T12:47:27.284Z,9.11
2023-03-11T12:49:57.402Z,9.17
2023-03-11T12:52:53.598Z,8.90
2023-03-11T12:55:37.178Z,8.89
2023-03-11T12:58:30.175Z,9.04
2023-03-11T13:01:08.770Z,9.13
2023-03-11T13:03:48.701Z,9.11
2023-03-11T13:06:27.910Z,9.08
2023-03-11T13:08:58.238Z,9.04
2023-03-11T13:11:39.138Z,8.99
2023-03-11T13:14:35.150Z,9.05
2023-03-11T13:17:26.962Z,9.11
2023-03-11T13:19:56.633Z,9.10
2023-03-11T13:23:14.945Z,9.05
2023-03-11T13:25:43.823Z,9.09
2023-03-11T13:28:37.191Z,9.09
2023-03-11T13:31:17.915Z,9.08
2023-03-11T13:33:53.039Z,9.07
2023-03-11T13:36:41.339Z,9.07
2023-03-11T13:39:27.806Z,9.05
2023-03-11T13:41:56.188Z,9.01
2023-03-11T13:44:30.420Z,8.95
2023-03-11T13:47:06.862Z,8.92
2023-03-11T13:49:41.219Z,8.23
2023-03-11T13:52:13.830Z,8.31
2023-03-11T13:54:48.484Z,8.44
2023-03-11T13:57:27.865Z,8.39
2023-03-11T13:59:57.442Z,8.22
2023-03-11T14:02:28.401Z,8.28
2023-03-11T14:05:03.654Z,8.39
2023-03-11T14:07:34.394Z,8.51
2023-03-11T14:10:23.955Z,8.63
2023-03-11T14:12:52.158Z,8.66
2023-03-11T14:15:24.301Z,8.31
2023-03-11T14:17:54.785Z,8.37
2023-03-11T14:20:26.255Z,8.26
2023-03-11T14:22:55.973Z,8.25
2023-03-11T14:25:26.368Z,8.30
2023-03-11T14:27:56.696Z,8.33
2023-03-11T14:30:27.644Z,8.37
2023-03-11T14:33:02.525Z,8.26
2023-03-11T14:35:33.906Z,8.31
2023-03-11T14:38:02.326Z,8.33
2023-03-11T14:40:32.431Z,8.35
2023-03-11T14:43:03.109Z,8.31
2023-03-11T14:45:33.615Z,8.29
2023-03-11T14:48:08.274Z,8.27
2023-03-11T14:50:36.655Z,8.02
2023-03-11T14:53:10.025Z,7.82
2023-03-11T14:55:41.128Z,7.83
2023-03-11T14:58:16.915Z,7.66
2023-03-11T15:00:50.794Z,7.64
2023-03-11T15:03:23.615Z,7.71
2023-03-11T15:05:54.883Z,7.71
2023-03-11T15:08:24.634Z,7.71
2023-03-11T15:11:06.536Z,7.76
2023-03-11T15:13:34.898Z,7.76
2023-03-11T15:16:04.635Z,7.77
2023-03-11T15:18:37.531Z,7.76
2023-03-11T15:21:12.655Z,7.75
2023-03-11T15:23:40.940Z,7.76
2023-03-11T15:26:20.392Z,7.73
2023-03-11T15:28:54.842Z,7.67
2023-03-11T15:31:31.576Z,7.61
2023-03-11T15:34:27.433Z,7.55
2023-03-11T15:37:17.864Z,7.52
2023-03-11T15:39:47.760Z,7.54
2023-03-11T15:42:20.050Z,7.56
2023-03-11T15:45:04.432Z,7.53
2023-03-11T15:47:32.597Z,7.50
2023-03-11T15:50:23.509Z,7.48
2023-03-11T15:52:52.779Z,7.44
2023-03-11T15:55:20.676Z,7.42
2023-03-11T15:57:49.700Z,7.41
2023-03-11T16:00:21.044Z,7.39
2023-03-11T16:02:49.895Z,7.37
2023-03-11T16:05:21.314Z,7.32
2023-03-11T16:07:49.180Z,7.30
2023-03-11T16:10:19.259Z,7.27
2023-03-11T16:12:47.147Z,7.23
2023-03-11T16:15:24.888Z,7.25
2023-03-11T16:17:53.879Z,7.21
2023-03-11T16:20:24.545Z,7.18
2023-03-11T16:22:54.675Z,7.13
2023-03-11T16:25:26.393Z,7.09
2023-03-11T16:27:56.058Z,7.05
2023-03-11T16:30:25.219Z,6.99
2023-03-11T16:32:53.087Z,6.99
2023-03-11T16:35:21.193Z,6.99
2023-03-11T16:37:51.016Z,6.95
2023-03-11T16:40:21.684Z,6.93
2023-03-11T16:42:49.733Z,6.92
2023-03-11T16:45:19.328Z,6.88
2023-03-11T16:47:47.184Z,6.86
2023-03-11T16:50:15.099Z,6.78
2023-03-11T16:52:42.996Z,6.76
2023-03-11T16:55:12.313Z,6.70
2023-03-11T16:57:40.183Z,6.67
2023-03-11T17:00:10.970Z,6.59
2023-03-11T17:02:39.640Z,6.58
2023-03-11T17:05:09.185Z,6.50
2023-03-11T17:07:39.590Z,6.43
2023-03-11T17:10:08.421Z,6.38
2023-03-11T17:12:38.069Z,6.36
2023-03-11T17:15:07.851Z,6.35
2023-03-11T17:17:35.639Z,6.33
2023-03-11T17:20:04.103Z,6.32
2023-03-11T17:22:32.523Z,6.29
2023-03-11T17:25:00.274Z,6.24
2023-03-11T17:27:32.183Z,6.20
2023-03-11T17:30:01.874Z,6.17
2023-03-11T17:32:29.685Z,6.12
2023-03-11T17:34:57.590Z,6.10
2023-03-11T17:37:25.761Z,6.05
2023-03-11T17:39:54.009Z,6.01
2023-03-11T17:42:21.816Z,5.98
2023-03-11T17:44:52.073Z,5.92
2023-03-11T17:47:21.931Z,5.91
2023-03-11T17:49:50.316Z,5.88
2023-03-11T17:52:18.098Z,5.85
2023-03-11T17:54:46.304Z,5.84
2023-03-11T17:57:14.173Z,5.81
2023-03-11T17:59:41.892Z,5.77
2023-03-11T18:02:14.231Z,5.74
2023-03-11T18:04:45.979Z,5.71
2023-03-11T18:07:14.191Z,5.71
2023-03-11T18:09:41.947Z,5.67
2023-03-11T18:12:10.013Z,5.59
2023-03-11T18:14:37.819Z,5.50
2023-03-11T18:17:05.943Z,5.42
2023-03-11T18:19:33.777Z,5.36
2023-03-11T18:22:02.915Z,5.27
2023-03-11T18:24:30.708Z,5.22
2023-03-11T18:26:58.481Z,5.11
2023-03-11T18:29:26.212Z,5.01
2023-03-11T18:31:53.965Z,5.00
2023-03-11T18:34:22.263Z,4.96
2023-03-11T18:36:50.199Z,4.92
2023-03-11T18:39:20.129Z,4.86
2023-03-11T18:41:47.939Z,4.80
2023-03-11T18:44:16.171Z,4.63
2023-03-11T18:46:46.970Z,4.62
2023-03-11T18:49:14.976Z,4.63
2023-03-11T18:51:42.744Z,4.63
2023-03-11T18:54:11.570Z,4.58
2023-03-11T18:56:40.736Z,4.57
2023-03-11T18:59:10.600Z,4.55
2023-03-11T19:01:38.560Z,4.52
2023-03-11T19:04:09.994Z,4.46
2023-03-11T19:06:38.202Z,4.41
2023-03-11T19:09:06.821Z,4.37
2023-03-11T19:11:34.686Z,4.33
2023-03-11T19:14:08.971Z,4.28
2023-03-11T19:16:36.747Z,4.26
2023-03-11T19:19:04.554Z,4.21
2023-03-11T19:21:32.377Z,4.17
2023-03-11T19:24:00.381Z,4.15
2023-03-11T19:26:43.702Z,4.11
2023-03-11T19:29:14.784Z,4.08
2023-03-11T19:31:43.469Z,4.06
2023-03-11T19:34:11.423Z,4.03
2023-03-11T19:36:39.506Z,3.96
2023-03-11T19:39:07.852Z,3.92
2023-03-11T19:41:35.673Z,3.93
2023-03-11T19:44:04.310Z,3.85
2023-03-11T19:46:34.761Z,3.85
2023-03-11T19:49:11.615Z,3.84
2023-03-11T19:51:49.493Z,3.83
2023-03-11T19:54:18.609Z,3.80
2023-03-11T19:56:46.690Z,3.77
2023-03-11T19:59:14.694Z,3.78
2023-03-11T20:01:43.854Z,3.78
2023-03-11T20:04:11.821Z,3.78
2023-03-11T20:06:39.701Z,3.75
2023-03-11T20:09:07.893Z,3.74
2023-03-11T20:11:39.193Z,3.71
2023-03-11T20:14:07.360Z,3.68
2023-03-11T20:16:36.396Z,3.64
2023-03-11T20:19:05.660Z,3.60
2023-03-11T20:21:33.485Z,3.57
2023-03-11T20:24:01.260Z,3.55
2023-03-11T20:26:29.055Z,3.52
2023-03-11T20:28:57.239Z,3.47
2023-03-11T20:31:26.823Z,3.40
2023-03-11T20:33:56.131Z,3.45
2023-03-11T20:36:27.138Z,3.41
2023-03-11T20:38:56.475Z,3.35
2023-03-11T20:41:25.973Z,3.32
2023-03-11T20:43:55.056Z,3.30
2023-03-11T20:46:23.562Z,3.29
2023-03-11T20:48:51.956Z,3.27
2023-03-11T20:51:21.380Z,3.27
2023-03-11T20:53:50.589Z,3.25
2023-03-11T20:56:20.778Z,3.25
2023-03-11T20:58:50.935Z,3.25
2023-03-11T21:01:21.278Z,3.24
2023-03-11T21:03:49.843Z,3.21
2023-03-11T21:06:20.129Z,3.21
2023-03-11T21:08:48.536Z,3.19
2023-03-11T21:11:18.880Z,3.17
2023-03-11T21:13:46.764Z,3.18
2023-03-11T21:16:14.932Z,3.15
2023-03-11T21:18:43.767Z,3.14
2023-03-11T21:21:12.617Z,3.11
2023-03-11T21:23:41.172Z,3.11
2023-03-11T21:26:09.548Z,3.10
2023-03-11T21:28:40.127Z,3.10
2023-03-11T21:31:10.897Z,3.08
2023-03-11T21:33:40.039Z,3.08
2023-03-11T21:36:09.092Z,3.06
2023-03-11T21:38:37.888Z,3.06
2023-03-11T21:41:09.021Z,3.04
2023-03-11T21:43:39.313Z,3.01
2023-03-11T21:46:08.131Z,3.00
2023-03-11T21:48:36.117Z,2.99
2023-03-11T21:51:04.264Z,3.00
2023-03-11T21:53:32.739Z,2.98
2023-03-11T21:56:01.388Z,2.96
2023-03-11T21:58:31.106Z,2.89
2023-03-11T22:01:00.942Z,2.90
2023-03-11T22:03:29.165Z,2.89
2023-03-11T22:05:58.792Z,2.93
2023-03-11T22:08:27.071Z,2.91
2023-03-11T22:10:56.692Z,2.96
2023-03-11T22:13:25.322Z,2.91
2023-03-11T22:15:53.628Z,2.92
2023-03-11T22:18:23.000Z,2.93
2023-03-11T22:20:50.851Z,2.95
2023-03-11T22:23:18.715Z,2.94
2023-03-11T22:25:46.513Z,2.94
2023-03-11T22:28:14.771Z,2.93
2023-03-11T22:30:42.791Z,2.89
2023-03-11T22:33:10.550Z,2.92
2023-03-11T22:35:39.752Z,2.93
2023-03-11T22:38:07.698Z,2.91
2023-03-11T22:40:35.919Z,2.91
2023-03-11T22:43:03.665Z,2.89
2023-03-11T22:45:31.434Z,2.86
2023-03-11T22:47:59.213Z,2.87
2023-03-11T22:50:27.031Z,2.81
2023-03-11T22:52:56.247Z,2.81
2023-03-11T22:55:24.023Z,2.81
2023-03-11T22:57:51.862Z,2.80
2023-03-11T23:00:22.520Z,2.72
2023-03-11T23:02:54.031Z,2.79
2023-03-11T23:05:22.768Z,2.77
2023-03-11T23:07:51.308Z,2.76
2023-03-11T23:10:21.603Z,2.77
2023-03-11T23:12:50.101Z,2.77
2023-03-11T23:15:19.607Z,2.73
2023-03-11T23:17:47.669Z,2.76
2023-03-11T23:20:16.832Z,2.78
2023-03-11T23:22:45.257Z,2.77
2023-03-11T23:25:15.802Z,2.76
2023-03-11T23:27:46.566Z,2.72
2023-03-11T23:30:16.484Z,2.72
2023-03-11T23:32:45.107Z,2.73
2023-03-11T23:35:13.781Z,2.77
2023-03-11T23:37:41.819Z,2.77
2023-03-11T23:40:11.445Z,2.76
2023-03-11T23:42:39.315Z,2.73
2023-03-11T23:45:10.068Z,2.75
2023-03-11T23:47:37.979Z,2.74
2023-03-11T23:50:06.721Z,2.73
2023-03-11T23:52:34.861Z,2.71
2023-03-11T23:55:02.990Z,2.68
2023-03-11T23:57:30.838Z,2.70
2023-03-11T23:59:58.855Z,2.68
